createdAt,value
2018-10-21T00:01:37.289Z,6.90
2018-10-21T00:04:06.497Z,6.90
2018-10-21T00:06:35.337Z,6.80
2018-10-21T00:09:06.090Z,6.80
2018-10-21T00:11:35.400Z,6.80
2018-10-21T00:14:04.294Z,6.70
2018-10-21T00:16:33.068Z,6.70
2018-10-21T00:19:01.754Z,6.60
2018-10-21T00:21:30.383Z,6.60
2018-10-21T00:23:58.993Z,6.60
2018-10-21T00:26:27.916Z,6.50
2018-10-21T00:28:57.567Z,6.50
2018-10-21T00:31:26.150Z,6.50
2018-10-21T00:33:55.384Z,6.50
2018-10-21T00:36:24.166Z,6.50
2018-10-21T00:38:52.919Z,6.50
2018-10-21T00:41:21.929Z,6.40
2018-10-21T00:43:50.648Z,6.40
2018-10-21T00:46:19.326Z,6.40
2018-10-21T00:48:48.004Z,6.40
2018-10-21T00:51:16.950Z,6.40
2018-10-21T00:53:46.106Z,6.40
2018-10-21T00:56:14.781Z,6.30
2018-10-21T00:58:43.361Z,6.30
2018-10-21T01:01:11.913Z,6.30
2018-10-21T01:03:40.519Z,6.30
2018-10-21T01:06:09.078Z,6.40
2018-10-21T01:08:37.944Z,6.40
2018-10-21T01:11:06.641Z,6.40
2018-10-21T01:13:35.470Z,6.40
2018-10-21T01:16:04.184Z,6.40
2018-10-21T01:18:32.955Z,6.50
2018-10-21T01:21:01.527Z,6.50
2018-10-21T01:23:30.615Z,6.40
2018-10-21T01:25:59.249Z,6.30
2018-10-21T01:28:27.945Z,6.30
2018-10-21T01:30:56.994Z,6.10
2018-10-21T01:33:25.582Z,6.10
2018-10-21T01:35:54.234Z,6.10
2018-10-21T01:38:23.106Z,6.10
2018-10-21T01:40:53.870Z,6.10
2018-10-21T01:43:23.866Z,6.20
2018-10-21T01:45:52.475Z,6.10
2018-10-21T01:48:22.128Z,6.10
2018-10-21T01:50:50.901Z,6.10
2018-10-21T01:53:20.287Z,6.00
2018-10-21T01:55:48.969Z,6.00
2018-10-21T01:58:17.790Z,6.10
2018-10-21T02:00:46.822Z,6.00
2018-10-21T02:03:16.544Z,6.10
2018-10-21T02:05:46.078Z,6.10
2018-10-21T02:08:14.714Z,6.10
2018-10-21T02:10:43.519Z,6.10
2018-10-21T02:13:12.151Z,6.10
2018-10-21T02:15:40.700Z,6.10
2018-10-21T02:18:10.094Z,6.10
2018-10-21T02:20:38.650Z,6.10
2018-10-21T02:23:07.462Z,6.20
2018-10-21T02:25:36.043Z,6.20
2018-10-21T02:28:04.874Z,6.20
2018-10-21T02:30:33.614Z,6.30
2018-10-21T02:33:02.776Z,6.30
2018-10-21T02:35:31.502Z,6.30
2018-10-21T02:38:00.147Z,6.30
2018-10-21T02:50:52.390Z,6.20
2018-10-21T02:53:20.972Z,6.30
2018-10-21T02:55:49.665Z,6.30
2018-10-21T02:58:18.370Z,6.30
2018-10-21T03:00:46.939Z,6.40
2018-10-21T03:03:15.815Z,6.40
2018-10-21T03:05:44.409Z,6.50
2018-10-21T03:08:12.998Z,6.50
2018-10-21T03:10:41.678Z,6.60
2018-10-21T03:13:10.299Z,6.60
2018-10-21T03:15:39.008Z,6.60
2018-10-21T03:18:07.707Z,6.60
2018-10-21T03:20:36.190Z,6.60
2018-10-21T03:23:05.162Z,6.70
2018-10-21T03:25:33.887Z,6.70
2018-10-21T03:28:02.578Z,6.80
2018-10-21T03:30:31.432Z,6.80
2018-10-21T03:33:00.192Z,6.80
2018-10-21T03:35:28.799Z,6.80
2018-10-21T03:37:57.894Z,6.90
2018-10-21T03:40:26.675Z,6.90
2018-10-21T03:42:55.630Z,6.90
2018-10-21T03:45:25.129Z,7.00
2018-10-21T03:47:54.534Z,7.00
2018-10-21T03:57:30.727Z,7.00
2018-10-21T04:00:02.668Z,7.00
2018-10-21T04:02:32.973Z,7.10
2018-10-21T04:05:01.560Z,7.10
2018-10-21T04:07:30.997Z,7.10
2018-10-21T04:09:59.899Z,7.10
2018-10-21T04:12:28.661Z,7.10
2018-10-21T04:14:57.368Z,7.10
2018-10-21T04:17:25.965Z,7.10
2018-10-21T04:19:54.606Z,7.10
2018-10-21T04:22:23.430Z,7.10
2018-10-21T04:24:52.008Z,7.10
2018-10-21T04:27:20.617Z,7.10
2018-10-21T04:29:49.194Z,7.20
2018-10-21T04:32:17.789Z,7.10
2018-10-21T04:34:46.569Z,7.20
2018-10-21T04:37:26.824Z,7.20
2018-10-21T04:40:09.176Z,7.20
2018-10-21T04:42:37.903Z,7.20
2018-10-21T04:45:07.217Z,7.20
2018-10-21T04:47:35.978Z,7.10
2018-10-21T04:50:04.721Z,7.10
2018-10-21T04:52:34.058Z,7.20
2018-10-21T04:55:05.608Z,7.20
2018-10-21T04:57:34.911Z,7.20
2018-10-21T05:00:03.930Z,7.20
2018-10-21T05:02:32.908Z,7.20
2018-10-21T05:05:01.627Z,7.20
2018-10-21T05:07:30.158Z,7.20
2018-10-21T05:09:58.776Z,7.20
2018-10-21T05:12:27.463Z,7.20
2018-10-21T05:14:56.030Z,7.20
2018-10-21T05:17:24.694Z,7.20
2018-10-21T05:19:53.438Z,7.20
2018-10-21T05:22:21.882Z,7.20
2018-10-21T05:24:50.383Z,7.20
2018-10-21T05:27:18.835Z,7.20
2018-10-21T05:29:47.306Z,7.20
2018-10-21T05:32:15.772Z,7.20
2018-10-21T05:34:44.227Z,7.20
2018-10-21T05:37:12.780Z,7.20
2018-10-21T05:39:41.350Z,7.30
2018-10-21T05:42:09.835Z,7.30
2018-10-21T05:44:38.323Z,7.30
2018-10-21T05:47:06.845Z,7.30
2018-10-21T05:49:35.477Z,7.30
2018-10-21T05:52:03.978Z,7.30
2018-10-21T05:54:34.596Z,7.30
2018-10-21T05:57:03.097Z,7.30
2018-10-21T05:59:31.657Z,7.40
2018-10-21T06:02:00.146Z,7.40
2018-10-21T06:04:28.604Z,7.40
2018-10-21T06:06:57.076Z,7.40
2018-10-21T06:09:25.621Z,7.40
2018-10-21T06:11:54.189Z,7.50
2018-10-21T06:14:22.677Z,7.40
2018-10-21T06:16:57.522Z,7.40
2018-10-21T06:19:32.722Z,7.40
2018-10-21T06:22:01.412Z,7.50
2018-10-21T06:24:29.915Z,7.50
2018-10-21T06:26:58.393Z,7.50
2018-10-21T06:29:26.850Z,7.50
2018-10-21T06:31:55.406Z,7.60
2018-10-21T06:34:24.042Z,7.60
2018-10-21T06:36:52.630Z,7.60
2018-10-21T06:39:21.274Z,7.50
2018-10-21T06:41:49.965Z,7.50
2018-10-21T06:44:18.617Z,7.50
2018-10-21T06:46:47.117Z,7.50
2018-10-21T06:49:15.599Z,7.60
2018-10-21T06:51:44.358Z,7.60
2018-10-21T06:54:12.878Z,7.60
2018-10-21T06:56:41.454Z,7.60
2018-10-21T06:59:09.851Z,7.60
2018-10-21T07:01:38.334Z,7.60
2018-10-21T07:04:07.522Z,7.60
2018-10-21T07:06:36.007Z,7.70
2018-10-21T07:09:06.080Z,7.70
2018-10-21T07:11:34.895Z,7.70
2018-10-21T07:14:03.427Z,7.70
2018-10-21T07:16:32.045Z,7.70
2018-10-21T07:19:00.414Z,7.80
2018-10-21T07:21:28.895Z,7.80
2018-10-21T07:23:57.399Z,7.80
2018-10-21T07:26:25.867Z,7.80
2018-10-21T07:28:54.350Z,7.80
2018-10-21T07:31:22.855Z,7.80
2018-10-21T07:33:51.385Z,7.90
2018-10-21T07:36:20.044Z,7.90
2018-10-21T07:38:48.514Z,7.90
2018-10-21T07:41:17.058Z,7.90
2018-10-21T07:43:45.575Z,8.00
2018-10-21T07:46:14.298Z,8.00
2018-10-21T07:48:42.793Z,8.10
2018-10-21T07:51:11.273Z,8.10
2018-10-21T07:53:40.019Z,8.20
2018-10-21T07:56:09.104Z,8.20
2018-10-21T07:58:37.958Z,8.30
2018-10-21T08:01:06.543Z,8.30
2018-10-21T08:03:35.058Z,8.40
2018-10-21T08:06:26.174Z,8.40
2018-10-21T08:08:54.719Z,8.40
2018-10-21T08:11:23.556Z,8.40
2018-10-21T08:13:52.246Z,8.50
2018-10-21T08:16:21.017Z,8.60
2018-10-21T08:18:50.337Z,8.60
2018-10-21T08:21:18.957Z,8.70
2018-10-21T08:23:47.828Z,8.70
2018-10-21T08:26:16.429Z,8.70
2018-10-21T08:28:44.949Z,8.80
2018-10-21T08:31:14.709Z,8.70
2018-10-21T08:33:43.221Z,8.70
2018-10-21T08:36:11.680Z,8.80
2018-10-21T08:38:41.210Z,8.70
2018-10-21T08:41:09.728Z,8.80
2018-10-21T08:43:38.461Z,8.80
2018-10-21T08:46:07.158Z,8.80
2018-10-21T08:48:35.783Z,8.80
2018-10-21T08:51:04.235Z,8.80
2018-10-21T08:53:32.781Z,8.90
2018-10-21T08:56:01.386Z,8.90
2018-10-21T08:58:29.998Z,8.90
2018-10-21T09:00:58.544Z,8.90
2018-10-21T09:03:27.271Z,8.90
2018-10-21T09:05:55.774Z,9.00
2018-10-21T09:08:24.330Z,9.00
2018-10-21T09:10:52.863Z,9.00
2018-10-21T09:13:21.581Z,9.10
2018-10-21T09:15:50.079Z,9.10
2018-10-21T09:18:18.580Z,9.20
2018-10-21T09:20:48.056Z,9.30
2018-10-21T09:23:16.530Z,9.30
2018-10-21T09:25:45.035Z,9.30
2018-10-21T09:28:13.651Z,9.40
2018-10-21T09:30:42.230Z,9.50
2018-10-21T09:33:10.900Z,9.60
2018-10-21T09:35:39.414Z,9.60
2018-10-21T09:38:08.070Z,9.70
2018-10-21T09:40:36.718Z,9.80
2018-10-21T09:43:05.829Z,9.70
2018-10-21T09:45:34.330Z,9.70
2018-10-21T09:48:02.845Z,9.80
2018-10-21T09:50:31.327Z,9.70
2018-10-21T09:52:59.848Z,9.70
2018-10-21T09:55:28.592Z,9.70
2018-10-21T09:57:57.198Z,9.80
2018-10-21T10:00:31.219Z,9.90
2018-10-21T10:03:08.922Z,10.00
2018-10-21T10:05:37.643Z,10.00
2018-10-21T10:08:06.178Z,10.10
2018-10-21T10:10:34.976Z,10.10
2018-10-21T10:13:03.559Z,10.10
2018-10-21T10:15:32.123Z,10.10
2018-10-21T10:18:00.620Z,10.10
2018-10-21T10:20:29.126Z,10.10
2018-10-21T10:22:57.890Z,10.10
2018-10-21T10:25:26.492Z,10.10
2018-10-21T10:27:55.236Z,10.10
2018-10-21T10:30:23.892Z,10.10
2018-10-21T10:32:52.350Z,10.20
2018-10-21T10:35:20.853Z,10.20
2018-10-21T10:37:49.407Z,10.20
2018-10-21T10:40:17.955Z,10.30
2018-10-21T10:42:46.420Z,10.50
2018-10-21T10:45:14.923Z,10.50
2018-10-21T10:47:43.454Z,10.60
2018-10-21T10:50:12.327Z,10.70
2018-10-21T10:52:41.192Z,10.70
2018-10-21T10:55:10.162Z,10.60
2018-10-21T10:57:39.639Z,10.50
2018-10-21T11:00:18.772Z,10.60
2018-10-21T11:02:47.276Z,10.60
2018-10-21T11:05:15.919Z,10.60
2018-10-21T11:07:44.399Z,10.60
2018-10-21T11:10:13.038Z,10.60
2018-10-21T11:12:41.554Z,10.60
2018-10-21T11:15:11.089Z,10.60
2018-10-21T11:17:40.346Z,10.60
2018-10-21T11:20:09.570Z,10.60
2018-10-21T11:22:41.759Z,10.70
2018-10-21T11:25:23.622Z,10.60
2018-10-21T11:27:53.407Z,10.60
2018-10-21T11:43:49.133Z,10.80
2018-10-21T11:46:17.719Z,10.90
2018-10-21T11:48:46.242Z,10.90
2018-10-21T11:51:15.311Z,10.90
2018-10-21T11:53:44.050Z,10.90
2018-10-21T11:56:12.772Z,10.80
2018-10-21T11:58:41.714Z,10.80
2018-10-21T12:01:10.630Z,10.80
2018-10-21T12:03:39.298Z,10.90
2018-10-21T12:06:07.947Z,10.90
2018-10-21T12:08:36.616Z,10.90
2018-10-21T12:11:05.622Z,11.00
2018-10-21T12:13:34.177Z,11.00
2018-10-21T12:16:02.746Z,11.00
2018-10-21T12:18:31.560Z,11.10
2018-10-21T12:21:00.106Z,11.10
2018-10-21T12:23:28.818Z,11.10
2018-10-21T12:25:57.269Z,11.10
2018-10-21T12:28:25.878Z,11.10
2018-10-21T12:30:54.528Z,11.10
2018-10-21T12:33:23.064Z,11.10
2018-10-21T12:35:51.723Z,11.20
2018-10-21T12:38:20.222Z,11.20
2018-10-21T12:40:48.704Z,11.20
2018-10-21T12:43:17.441Z,11.20
2018-10-21T12:45:45.899Z,11.30
2018-10-21T12:48:14.420Z,11.30
2018-10-21T12:50:42.927Z,11.30
2018-10-21T12:53:11.568Z,11.30
2018-10-21T12:55:45.603Z,11.30
2018-10-21T12:58:14.570Z,11.30
2018-10-21T13:00:43.112Z,11.30
2018-10-21T13:03:11.889Z,11.30
2018-10-21T13:05:41.770Z,11.30
2018-10-21T13:08:10.475Z,11.30
2018-10-21T13:10:39.245Z,11.30
2018-10-21T13:13:07.860Z,11.30
2018-10-21T13:15:36.314Z,11.20
2018-10-21T13:18:05.625Z,11.20
2018-10-21T13:20:34.481Z,11.30
2018-10-21T13:23:02.992Z,11.30
2018-10-21T13:25:31.726Z,11.20
2018-10-21T13:28:00.727Z,11.30
2018-10-21T13:30:29.250Z,11.20
2018-10-21T13:32:57.780Z,11.30
2018-10-21T13:35:26.290Z,11.30
2018-10-21T13:37:55.090Z,11.30
2018-10-21T13:40:24.048Z,11.30
2018-10-21T13:42:52.773Z,11.30
2018-10-21T13:45:21.956Z,11.30
2018-10-21T13:47:50.577Z,11.30
2018-10-21T13:50:19.384Z,11.30
2018-10-21T13:52:47.962Z,11.30
2018-10-21T13:55:16.787Z,11.30
2018-10-21T13:57:45.268Z,11.30
2018-10-21T14:00:13.813Z,11.30
2018-10-21T14:02:42.331Z,11.20
2018-10-21T14:05:10.879Z,11.30
2018-10-21T14:07:40.422Z,11.20
2018-10-21T14:10:09.351Z,11.20
2018-10-21T14:12:38.116Z,11.20
2018-10-21T14:15:07.158Z,11.20
2018-10-21T14:17:35.724Z,11.20
2018-10-21T14:20:04.620Z,11.20
2018-10-21T14:22:33.671Z,11.20
2018-10-21T14:25:02.248Z,11.20
2018-10-21T14:27:30.903Z,11.30
2018-10-21T14:30:00.193Z,11.30
2018-10-21T14:32:28.845Z,11.20
2018-10-21T14:34:57.339Z,11.30
2018-10-21T14:37:26.108Z,11.20
2018-10-21T14:39:54.882Z,11.20
2018-10-21T14:42:23.563Z,11.20
2018-10-21T14:44:52.285Z,11.20
2018-10-21T14:47:20.954Z,11.20
2018-10-21T14:49:49.523Z,11.20
2018-10-21T14:52:18.128Z,11.20
2018-10-21T14:54:46.834Z,11.20
2018-10-21T14:57:15.408Z,11.20
2018-10-21T14:59:44.245Z,11.20
2018-10-21T15:02:12.862Z,11.30
2018-10-21T15:04:41.407Z,11.20
2018-10-21T15:07:09.976Z,11.20
2018-10-21T15:09:38.647Z,11.20
2018-10-21T15:12:07.205Z,11.20
2018-10-21T15:14:35.969Z,11.10
2018-10-21T15:17:04.916Z,11.10
2018-10-21T15:19:33.593Z,11.10
2018-10-21T15:22:02.315Z,11.10
2018-10-21T15:24:30.953Z,11.10
2018-10-21T15:26:59.623Z,11.10
2018-10-21T15:29:28.272Z,11.00
2018-10-21T15:31:56.830Z,11.00
2018-10-21T15:34:25.595Z,11.00
2018-10-21T15:36:54.327Z,11.00
2018-10-21T15:39:23.017Z,11.00
2018-10-21T15:41:51.591Z,11.00
2018-10-21T15:44:20.515Z,10.90
2018-10-21T15:46:49.008Z,10.90
2018-10-21T15:49:17.597Z,10.90
2018-10-21T15:51:46.175Z,10.90
2018-10-21T15:54:14.928Z,10.90
2018-10-21T15:56:43.918Z,10.80
2018-10-21T15:59:12.517Z,10.80
2018-10-21T16:01:41.490Z,10.80
2018-10-21T16:04:10.278Z,10.80
2018-10-21T16:06:38.943Z,10.80
2018-10-21T16:09:10.347Z,10.80
2018-10-21T16:11:39.305Z,10.70
2018-10-21T16:14:07.897Z,10.70
2018-10-21T16:16:36.367Z,10.70
2018-10-21T16:19:05.345Z,10.70
2018-10-21T16:21:34.942Z,10.70
2018-10-21T16:24:04.437Z,10.70
2018-10-21T16:26:33.089Z,10.70
2018-10-21T16:29:02.382Z,10.70
2018-10-21T16:31:31.023Z,10.70
2018-10-21T16:33:59.932Z,10.70
2018-10-21T16:36:28.658Z,10.70
2018-10-21T16:38:57.236Z,10.70
2018-10-21T16:41:29.273Z,10.60
2018-10-21T16:43:58.100Z,10.60
2018-10-21T16:46:26.634Z,10.60
2018-10-21T16:48:55.805Z,10.60
2018-10-21T16:51:24.500Z,10.60
2018-10-21T16:53:54.489Z,10.60
2018-10-21T16:56:22.990Z,10.60
2018-10-21T16:58:51.547Z,10.50
2018-10-21T17:01:20.094Z,10.50
2018-10-21T17:03:48.974Z,10.60
2018-10-21T17:06:17.847Z,10.50
2018-10-21T17:08:46.394Z,10.60
2018-10-21T17:11:15.294Z,10.50
2018-10-21T17:13:43.991Z,10.50
2018-10-21T17:16:12.715Z,10.50
2018-10-21T17:18:41.226Z,10.50
2018-10-21T17:21:10.026Z,10.50
2018-10-21T17:23:38.731Z,10.50
2018-10-21T17:26:07.631Z,10.40
2018-10-21T17:28:36.159Z,10.40
2018-10-21T17:31:05.094Z,10.40
2018-10-21T17:33:33.941Z,10.40
2018-10-21T17:36:02.660Z,10.30
2018-10-21T17:38:31.475Z,10.30
2018-10-21T17:41:00.448Z,10.30
2018-10-21T17:43:29.114Z,10.20
2018-10-21T17:45:57.973Z,10.20
2018-10-21T17:48:26.487Z,10.20
2018-10-21T17:50:55.123Z,10.10
2018-10-21T17:53:23.683Z,10.00
2018-10-21T17:55:52.323Z,10.00
2018-10-21T17:58:21.442Z,9.90
2018-10-21T18:00:49.949Z,9.80
2018-10-21T18:03:18.454Z,9.80
2018-10-21T18:05:47.260Z,9.80
2018-10-21T18:08:15.818Z,9.70
2018-10-21T18:10:44.657Z,9.70
2018-10-21T18:13:13.468Z,9.60
2018-10-21T18:15:42.276Z,9.60
2018-10-21T18:18:11.068Z,9.50
2018-10-21T18:20:39.890Z,9.50
2018-10-21T18:23:08.497Z,9.40
2018-10-21T18:25:37.239Z,9.40
2018-10-21T18:28:06.354Z,9.30
2018-10-21T18:30:34.987Z,9.30
2018-10-21T18:33:03.901Z,9.20
2018-10-21T18:35:32.448Z,9.20
2018-10-21T18:38:01.153Z,9.20
2018-10-21T18:40:30.091Z,9.10
2018-10-21T18:42:59.227Z,9.10
2018-10-21T18:45:28.101Z,9.10
2018-10-21T18:47:57.914Z,9.00
2018-10-21T18:50:26.493Z,9.00
2018-10-21T18:52:55.168Z,8.90
2018-10-21T18:55:23.835Z,8.90
2018-10-21T18:57:52.549Z,8.90
2018-10-21T19:00:21.314Z,8.80
2018-10-21T19:02:50.026Z,8.80
2018-10-21T19:05:18.865Z,8.80
2018-10-21T19:07:47.455Z,8.70
2018-10-21T19:10:16.903Z,8.70
2018-10-21T19:12:45.751Z,8.70
2018-10-21T19:15:14.927Z,8.60
2018-10-21T19:17:44.907Z,8.60
2018-10-21T19:20:15.651Z,8.60
2018-10-21T19:22:44.431Z,8.50
2018-10-21T19:25:14.532Z,8.50
2018-10-21T19:27:44.856Z,8.50
2018-10-21T19:30:14.271Z,8.50
2018-10-21T19:32:44.249Z,8.40
2018-10-21T19:35:15.031Z,8.40
2018-10-21T19:37:46.068Z,8.40
2018-10-21T19:40:23.218Z,8.30
2018-10-21T19:42:52.080Z,8.30
2018-10-21T19:45:21.288Z,8.30
2018-10-21T19:47:49.993Z,8.20
2018-10-21T19:50:18.867Z,8.20
2018-10-21T19:52:47.773Z,8.20
2018-10-21T19:55:16.652Z,8.10
2018-10-21T19:57:45.789Z,8.10
2018-10-21T20:00:15.678Z,8.10
2018-10-21T20:02:44.578Z,8.10
2018-10-21T20:05:13.363Z,8.10
2018-10-21T20:07:42.131Z,8.00
2018-10-21T20:10:12.717Z,8.00
2018-10-21T20:12:41.812Z,8.00
2018-10-21T20:15:11.514Z,7.90
2018-10-21T20:17:40.543Z,7.90
2018-10-21T20:20:10.686Z,7.90
2018-10-21T20:22:39.296Z,7.90
2018-10-21T20:25:08.880Z,7.80
2018-10-21T20:27:37.941Z,7.80
2018-10-21T20:30:07.934Z,7.80
2018-10-21T20:32:36.611Z,7.70
2018-10-21T20:35:06.707Z,7.70
2018-10-21T20:37:35.591Z,7.70
2018-10-21T20:40:04.494Z,7.70
2018-10-21T20:42:33.019Z,7.60
2018-10-21T20:45:01.691Z,7.60
2018-10-21T20:47:30.583Z,7.60
2018-10-21T20:49:59.185Z,7.60
2018-10-21T20:52:28.239Z,7.50
2018-10-21T20:54:57.863Z,7.50
2018-10-21T20:57:26.641Z,7.50
2018-10-21T20:59:55.382Z,7.50
2018-10-21T21:02:24.417Z,7.50
2018-10-21T21:04:53.107Z,7.40
2018-10-21T21:07:21.721Z,7.40
2018-10-21T21:09:51.929Z,7.40
2018-10-21T21:12:24.139Z,7.30
2018-10-21T21:14:53.155Z,7.40
2018-10-21T21:17:21.760Z,7.30
2018-10-21T21:19:50.408Z,7.30
2018-10-21T21:22:19.115Z,7.30
2018-10-21T21:24:47.772Z,7.30
2018-10-21T21:27:16.597Z,7.30
2018-10-21T21:29:45.453Z,7.30
2018-10-21T21:32:14.313Z,7.30
2018-10-21T21:34:43.035Z,7.30
2018-10-21T21:37:12.088Z,7.30
2018-10-21T21:39:40.680Z,7.30
2018-10-21T21:42:09.388Z,7.30
2018-10-21T21:44:38.053Z,7.30
2018-10-21T21:47:07.041Z,7.30
2018-10-21T21:49:35.841Z,7.30
2018-10-21T21:52:04.651Z,7.30
2018-10-21T21:54:33.272Z,7.30
2018-10-21T21:57:02.070Z,7.30
2018-10-21T21:59:30.837Z,7.30
2018-10-21T22:01:59.560Z,7.30
2018-10-21T22:04:28.308Z,7.40
2018-10-21T22:06:56.898Z,7.40
2018-10-21T22:09:25.571Z,7.40
2018-10-21T22:11:54.276Z,7.40
2018-10-21T22:14:23.242Z,7.40
2018-10-21T22:16:51.784Z,7.50
2018-10-21T22:19:20.563Z,7.50
2018-10-21T22:21:50.416Z,7.50
2018-10-21T22:24:19.000Z,7.50
2018-10-21T22:26:47.738Z,7.50
2018-10-21T22:29:16.300Z,7.50
2018-10-21T22:31:45.225Z,7.40
2018-10-21T22:34:14.177Z,7.40
2018-10-21T22:36:42.649Z,7.40
2018-10-21T22:39:14.493Z,7.40
2018-10-21T22:41:43.332Z,7.40
2018-10-21T22:44:11.998Z,7.40
2018-10-21T22:46:40.778Z,7.40
2018-10-21T22:49:09.384Z,7.40
2018-10-21T22:51:38.117Z,7.40
2018-10-21T22:54:06.772Z,7.50
2018-10-21T22:56:35.373Z,7.50
2018-10-21T22:59:04.147Z,7.50
2018-10-21T23:01:32.765Z,7.40
2018-10-21T23:04:01.639Z,7.50
2018-10-21T23:06:30.151Z,7.50
2018-10-21T23:08:58.923Z,7.50
2018-10-21T23:11:27.586Z,7.40
2018-10-21T23:13:57.724Z,7.40
2018-10-21T23:16:26.577Z,7.40
2018-10-21T23:20:05.312Z,7.40
2018-10-21T23:22:33.924Z,7.40
2018-10-21T23:25:02.593Z,7.40
2018-10-21T23:27:31.197Z,7.40
2018-10-21T23:29:59.848Z,7.30
2018-10-21T23:32:28.529Z,7.30
2018-10-21T23:34:57.296Z,7.30
2018-10-21T23:37:25.893Z,7.40
2018-10-21T23:39:54.467Z,7.40
2018-10-21T23:42:23.195Z,7.40
2018-10-21T23:44:52.196Z,7.40
2018-10-21T23:47:21.338Z,7.30
2018-10-21T23:49:50.357Z,7.30
2018-10-21T23:52:19.003Z,7.20
2018-10-21T23:54:49.578Z,7.20
2018-10-21T23:57:39.597Z,7.10
